Time;durP1;ratioP1;P1;durP2;ratioP2;P2;SDS_P1;SDS_P2;PMS_P1;PMS_P2;Temp;Humidity;BMP_temperature;BMP_pressure;BME280_temperature;BME280_humidity;BME280_pressure;Samples;Min_cycle;Max_cycle;Signal;HPM_P1;HPM_P2
2022/09/29 00:02:49;;;;;;;;;;;;;;;7.18;84.77;98911.34;10197552;28;20055;-78
2022/09/29 00:07:53;;;;;;;27.20;18.02;;;;;;;7.06;84.42;98908.81;10202425;28;19926;-78
2022/09/29 00:12:56;;;;;;;25.30;17.83;;;;;;;7.02;84.39;98912.75;10193719;28;20054;-78
2022/09/29 00:17:59;;;;;;;29.33;18.95;;;;;;;6.95;84.79;98916.09;10204952;28;20043;-78
2022/09/29 00:23:17;;;;;;;27.50;19.95;;;;;;;7.03;84.42;98908.25;10212906;28;20053;-79
2022/09/29 00:28:20;;;;;;;30.75;19.55;;;;;;;7.05;84.26;98909.78;10177881;29;20397;-78
2022/09/29 00:33:22;;;;;;;28.80;19.17;;;;;;;7.14;84.16;98908.13;10192598;28;20413;-78
2022/09/29 00:38:27;;;;;;;28.80;19.80;;;;;;;7.08;83.84;98905.16;10201654;28;20631;-78
2022/09/29 00:43:55;;;;;;;28.30;19.08;;;;;;;6.97;84.14;98917.66;10195019;28;20126;-79
2022/09/29 00:49:01;;;;;;;31.60;20.40;;;;;;;6.89;84.44;98908.63;10199827;28;20051;-78
2022/09/29 00:54:07;;;;;;;29.77;19.70;;;;;;;6.84;84.36;98903.66;10191052;29;20051;-78
2022/09/29 00:59:16;;;;;;;30.98;19.92;;;;;;;6.79;84.66;98911.22;10197742;28;20429;-78
2022/09/29 01:04:21;;;;;;;30.08;20.48;;;;;;;6.77;84.88;98906.00;10198697;28;20099;-78
2022/09/29 01:09:28;;;;;;;29.88;19.92;;;;;;;6.82;85.03;98903.78;10198149;28;20051;-78
2022/09/29 01:14:33;;;;;;;28.73;19.20;;;;;;;6.81;85.13;98904.78;10211243;28;20613;-78
2022/09/29 01:19:43;;;;;;;26.23;17.80;;;;;;;6.77;85.24;98905.19;10213416;28;20047;-78
2022/09/29 01:24:56;;;;;;;26.83;18.30;;;;;;;6.77;85.19;98910.50;10200660;28;20047;-78
2022/09/29 01:30:15;;;;;;;25.48;17.15;;;;;;;6.78;85.40;98912.22;10198187;28;20057;-78
2022/09/29 01:35:25;;;;;;;26.00;17.70;;;;;;;6.77;85.38;98906.00;10201266;28;20092;-78
2022/09/29 01:40:35;;;;;;;27.02;18.08;;;;;;;6.74;85.05;98911.63;10177563;29;20051;-78
2022/09/29 01:45:43;;;;;;;26.38;18.13;;;;;;;6.67;85.09;98920.34;10180083;29;20087;-78
2022/09/29 01:50:52;;;;;;;26.85;17.30;;;;;;;6.60;85.35;98915.53;10200004;28;20047;-78
2022/09/29 01:56:01;;;;;;;26.92;17.85;;;;;;;6.59;85.58;98913.00;10177436;29;20063;-78
2022/09/29 02:01:10;;;;;;;30.83;19.95;;;;;;;6.70;85.66;98920.91;10198014;28;20089;-78
2022/09/29 02:06:19;;;;;;;28.20;19.98;;;;;;;6.78;85.83;98918.41;10176627;29;20473;-78
2022/09/29 02:11:23;;;;;;;29.95;19.58;;;;;;;6.92;85.91;98913.69;10195733;28;20043;-78
2022/09/29 02:16:29;;;;;;;25.70;18.75;;;;;;;7.02;85.81;98922.56;10197667;28;20067;-78
2022/09/29 02:21:34;;;;;;;25.83;18.90;;;;;;;7.09;85.37;98920.19;10195845;28;20086;-78
2022/09/29 02:26:37;;;;;;;26.33;18.25;;;;;;;7.11;85.20;98919.06;10220323;28;20330;-77
2022/09/29 02:31:40;;;;;;;25.15;17.00;;;;;;;7.10;85.33;98922.72;10232295;28;20059;-77
2022/09/29 02:36:54;;;;;;;26.00;17.60;;;;;;;7.13;85.13;98927.81;10196531;29;20062;-78
2022/09/29 02:42:12;;;;;;;27.05;17.77;;;;;;;7.15;84.90;98930.31;10202723;28;20079;-78
2022/09/29 02:47:30;;;;;;;22.85;16.98;;;;;;;7.16;85.21;98930.19;10195860;28;20592;-78
2022/09/29 02:52:46;;;;;;;25.58;18.23;;;;;;;7.16;85.18;98935.53;10205025;28;20055;-78
2022/09/29 02:57:53;;;;;;;24.65;18.05;;;;;;;7.16;85.33;98935.53;10212061;28;20050;-78
2022/09/29 03:02:56;;;;;;;25.52;19.02;;;;;;;7.15;84.93;98938.31;10184369;29;21276;-80
2022/09/29 03:08:00;;;;;;;;;;;;;;;7.12;84.64;98933.25;10185056;29;20048;-78
2022/09/29 03:13:03;;;;;;;31.40;18.45;;;;;;;7.02;84.51;98923.41;10203772;28;19952;-78
2022/09/29 03:18:07;;;;;;;27.73;16.85;;;;;;;6.93;84.32;98926.06;10201658;29;20273;-78
2022/09/29 03:23:13;;;;;;;25.88;18.10;;;;;;;6.89;84.43;98924.66;10205396;28;20047;-78
2022/09/29 03:28:16;;;;;;;32.53;19.88;;;;;;;6.84;84.24;98928.53;10195184;28;20055;-78
2022/09/29 03:33:19;;;;;;;30.60;20.15;;;;;;;6.82;84.64;98925.16;10213489;28;20073;-78
2022/09/29 03:38:23;;;;;;;33.22;19.92;;;;;;;6.83;84.41;98934.84;10201298;28;20059;-77
2022/09/29 03:43:27;;;;;;;30.88;19.02;;;;;;;6.81;84.35;98933.31;10194132;28;21295;-78
2022/09/29 03:48:33;;;;;;;26.15;17.67;;;;;;;6.79;84.37;98941.44;10199937;28;20505;-78
2022/09/29 03:53:37;;;;;;;32.30;19.48;;;;;;;6.74;84.28;98940.16;10201120;28;20046;-78
2022/09/29 03:58:40;;;;;;;28.02;17.08;;;;;;;6.68;84.18;98941.53;10178746;29;20055;-78
2022/09/29 04:03:43;;;;;;;29.60;18.42;;;;;;;6.62;84.24;98934.91;10191224;28;20442;-78
2022/09/29 04:08:48;;;;;;;;;;;;;;;6.53;84.07;98949.06;10195192;28;20052;-78
2022/09/29 04:13:51;;;;;;;28.63;18.08;;;;;;;6.51;83.95;98951.00;10178227;29;19933;-78
2022/09/29 04:18:54;;;;;;;28.42;18.25;;;;;;;6.54;84.14;98955.25;10196799;28;20052;-78
2022/09/29 04:23:58;;;;;;;29.25;19.15;;;;;;;6.54;84.10;98953.41;10178427;29;21158;-78
2022/09/29 04:29:01;;;;;;;32.83;20.77;;;;;;;6.44;83.79;98960.50;10192240;29;20051;-78
2022/09/29 04:34:04;;;;;;;30.70;19.55;;;;;;;6.31;83.73;98973.25;10178537;29;20055;-78
2022/09/29 04:39:08;;;;;;;30.25;18.58;;;;;;;6.27;83.84;98967.31;10193067;28;20055;-78
2022/09/29 04:44:11;;;;;;;28.80;17.55;;;;;;;6.23;83.45;98973.06;10196742;28;20052;-78
2022/09/29 04:49:13;;;;;;;25.25;17.40;;;;;;;6.24;83.59;98980.06;10204325;28;20055;-78
2022/09/29 04:54:18;;;;;;;27.50;17.20;;;;;;;6.28;83.90;98990.34;10199648;28;20513;-77
2022/09/29 04:59:20;;;;;;;29.77;18.25;;;;;;;6.26;83.90;99000.28;10205778;28;20055;-78
2022/09/29 05:04:23;;;;;;;31.65;18.48;;;;;;;6.20;83.75;98998.16;10213113;28;20051;-78
2022/09/29 05:09:28;;;;;;;29.15;19.02;;;;;;;6.10;83.61;99000.75;10208929;28;20047;-78
2022/09/29 05:14:35;;;;;;;27.92;17.90;;;;;;;6.09;83.64;98990.22;10196713;28;20146;-78
2022/09/29 05:19:38;;;;;;;34.03;19.05;;;;;;;6.11;83.31;99005.09;10193555;28;20056;-78
2022/09/29 05:24:42;;;;;;;30.50;18.15;;;;;;;6.05;83.42;99002.09;10189994;28;20058;-78
2022/09/29 05:29:45;;;;;;;34.03;18.95;;;;;;;6.05;83.64;99002.09;10204365;28;20134;-78
2022/09/29 05:34:49;;;;;;;30.70;18.65;;;;;;;6.05;83.44;99010.09;10219176;28;20085;-78
2022/09/29 05:39:53;;;;;;;29.52;18.75;;;;;;;6.01;83.54;99004.19;10222639;28;20120;-78
2022/09/29 05:44:56;;;;;;;26.73;18.67;;;;;;;6.03;83.66;99018.22;10203778;28;20190;-78
2022/09/29 05:49:59;;;;;;;33.28;18.02;;;;;;;5.90;83.22;99014.91;10197744;28;20047;-78
2022/09/29 05:55:04;;;;;;;33.42;21.33;;;;;;;5.88;82.98;99015.03;10178778;28;20229;-79
2022/09/29 06:00:08;;;;;;;32.47;18.98;;;;;;;5.91;83.08;99021.91;10187725;28;20063;-79
2022/09/29 06:05:13;;;;;;;30.85;17.83;;;;;;;5.98;83.18;99032.91;10197402;28;20124;-79
2022/09/29 06:10:17;;;;;;;30.42;19.10;;;;;;;6.14;83.15;99028.84;10199718;28;20052;-79
2022/09/29 06:15:20;;;;;;;31.15;19.30;;;;;;;6.39;83.09;99030.28;10204306;28;20110;-79
2022/09/29 06:20:23;;;;;;;;;;;;;;;6.57;82.80;99027.00;10197898;28;20053;-80
2022/09/29 06:25:27;;;;;;;30.02;17.45;;;;;;;6.84;82.15;99034.44;10211775;28;20376;-79
2022/09/29 06:30:30;;;;;;;23.77;15.45;;;;;;;6.91;81.32;99037.44;10202858;28;20087;-79
2022/09/29 06:40:54;;;;;;;22.95;15.18;;;;;;;7.42;79.76;99037.34;10208716;28;20063;-78
2022/09/29 06:45:58;;;;;;;29.17;15.68;;;;;;;7.79;78.82;99031.38;10203080;28;20056;-78
2022/09/29 06:51:00;;;;;;;25.42;15.80;;;;;;;7.78;77.33;99043.03;10201347;28;20051;-79
2022/09/29 06:56:12;;;;;;;22.05;14.48;;;;;;;7.62;76.63;99048.06;10207524;28;20051;-78
2022/09/29 07:01:15;;;;;;;31.13;18.50;;;;;;;7.65;77.08;99054.00;10209041;28;20183;-79
2022/09/29 07:06:19;;;;;;;27.00;15.93;;;;;;;7.79;77.45;99065.25;10210086;28;20055;-78
2022/09/29 07:11:24;;;;;;;24.75;15.65;;;;;;;8.01;77.73;99050.78;10208962;28;20051;-78
2022/09/29 07:16:26;;;;;;;27.58;16.70;;;;;;;8.44;77.74;99052.19;10196031;28;20103;-78
2022/09/29 07:21:29;;;;;;;25.60;16.45;;;;;;;8.62;76.85;99055.84;10199813;28;20536;-78
2022/09/29 07:26:34;;;;;;;17.02;12.05;;;;;;;8.57;76.41;99060.78;10186774;29;20609;-79
2022/09/29 07:31:36;;;;;;;39.55;20.02;;;;;;;8.66;75.75;99067.94;10203406;28;20055;-78
2022/09/29 07:36:52;;;;;;;17.88;12.07;;;;;;;8.86;75.64;99068.75;10198322;28;20453;-78
2022/09/29 07:41:57;;;;;;;;;;;;;;;9.37;75.73;99074.63;10202328;28;20092;-79
2022/09/29 07:47:00;;;;;;;13.90;9.90;;;;;;;9.65;75.35;99070.97;10199554;28;19927;-79
2022/09/29 07:52:02;;;;;;;;;;;;;;;9.81;74.77;99082.84;10210862;28;20055;-79
2022/09/29 07:57:07;;;;;;;16.63;12.77;;;;;;;10.41;74.83;99082.28;10200920;28;19926;-78
2022/09/29 08:02:09;;;;;;;19.95;14.38;;;;;;;11.00;69.69;99086.06;10197943;28;20181;-79
2022/09/29 08:07:12;;;;;;;18.75;12.77;;;;;;;11.77;69.27;99083.44;10202422;28;20148;-79
2022/09/29 08:12:16;;;;;;;19.75;13.25;;;;;;;11.83;68.92;99096.22;10205391;28;20060;-79
2022/09/29 08:17:19;;;;;;;23.50;14.68;;;;;;;11.54;67.86;99108.19;10210451;28;20058;-79
2022/09/29 08:22:22;;;;;;;24.60;15.15;;;;;;;11.24;67.94;99104.19;10207846;28;21380;-79
2022/09/29 08:27:28;;;;;;;;;;;;;;;11.65;68.28;99110.59;10208683;28;20055;-79
2022/09/29 08:32:30;;;;;;;24.15;17.35;;;;;;;12.10;67.52;99111.25;10212307;28;19926;-80
2022/09/29 08:37:33;;;;;;;28.17;18.70;;;;;;;11.79;66.25;99119.06;10211414;28;20051;-79
2022/09/29 08:42:51;;;;;;;27.33;18.52;;;;;;;12.38;64.20;99118.06;10205356;28;20051;-79
2022/09/29 08:48:01;;;;;;;25.88;17.10;;;;;;;12.87;63.05;99121.78;10201131;28;20055;-80
2022/09/29 08:53:17;;;;;;;30.45;17.85;;;;;;;13.33;62.31;99127.41;10201376;28;20472;-79
2022/09/29 08:58:32;;;;;;;27.55;17.40;;;;;;;13.01;60.64;99123.78;10212760;28;20075;-79
2022/09/29 09:04:02;;;;;;;28.02;17.20;;;;;;;13.16;60.05;99126.59;10198885;28;20058;-79
2022/09/29 09:09:27;;;;;;;23.02;15.98;;;;;;;13.32;61.14;99121.16;10211488;28;20444;-80
2022/09/29 09:14:57;;;;;;;27.58;18.30;;;;;;;13.30;62.31;99133.97;10210450;28;20058;-79
2022/09/29 09:20:33;;;;;;;24.45;17.35;;;;;;;13.80;59.56;99132.84;10212626;28;20047;-79
2022/09/29 09:25:40;;;;;;;24.38;17.05;;;;;;;13.73;58.89;99128.31;10121968;28;20050;-79
2022/09/29 09:30:50;;;;;;;21.02;15.98;;;;;;;14.19;58.38;99133.81;10205260;28;20047;-79
2022/09/29 09:35:59;;;;;;;23.63;15.77;;;;;;;14.32;57.73;99124.09;10204478;28;20076;-80
2022/09/29 09:41:02;;;;;;;21.05;15.35;;;;;;;15.76;54.56;99121.44;10209455;28;20035;-79
2022/09/29 09:46:16;;;;;;;19.60;12.57;;;;;;;14.62;56.67;99136.91;10182127;29;20056;-80
2022/09/29 09:51:32;;;;;;;15.02;11.35;;;;;;;12.89;58.67;99136.75;10211932;28;20051;-80
2022/09/29 09:56:58;;;;;;;16.33;12.60;;;;;;;13.37;58.11;99129.63;10207400;28;20066;-80
2022/09/29 10:02:02;;;;;;;14.13;11.25;;;;;;;14.28;56.68;99128.16;10207867;28;20078;-79
2022/09/29 10:07:05;;;;;;;16.83;11.65;;;;;;;15.12;54.77;99128.19;10191468;28;20519;-80
2022/09/29 10:12:15;;;;;;;16.33;9.98;;;;;;;15.03;53.55;99130.16;10209316;28;20191;-80
2022/09/29 10:17:22;;;;;;;12.70;9.43;;;;;;;15.40;55.04;99133.00;10213690;28;20122;-79
2022/09/29 10:22:25;;;;;;;9.35;7.35;;;;;;;16.46;49.21;99128.94;10204853;28;21146;-79
2022/09/29 10:27:29;;;;;;;10.88;7.30;;;;;;;15.08;51.99;99135.00;10210797;28;20140;-80
2022/09/29 10:32:36;;;;;;;8.13;6.60;;;;;;;14.78;54.31;99134.94;10199635;28;20173;-80
2022/09/29 10:37:42;;;;;;;10.15;6.30;;;;;;;15.50;51.21;99151.69;10199715;28;20433;-80
2022/09/29 10:42:47;;;;;;;6.57;5.53;;;;;;;16.17;50.13;99127.13;10196449;28;20054;-79
2022/09/29 10:48:10;;;;;;;5.30;3.20;;;;;;;15.64;48.90;99143.56;10195262;28;20076;-80
2022/09/29 10:53:23;;;;;;;4.18;2.47;;;;;;;17.53;44.63;99140.69;10211684;28;20055;-80
2022/09/29 10:58:30;;;;;;;4.68;2.85;;;;;;;17.22;47.71;99139.22;10205798;28;20061;-80
2022/09/29 11:04:00;;;;;;;3.45;3.13;;;;;;;19.17;42.80;99144.09;10210478;28;20058;-80
2022/09/29 11:09:05;;;;;;;6.03;3.42;;;;;;;19.91;40.55;99147.50;10207760;28;20873;-79
2022/09/29 11:14:24;;;;;;;1.95;1.83;;;;;;;18.60;42.13;99148.22;10207174;28;20121;-77
2022/09/29 11:19:30;;;;;;;4.47;2.22;;;;;;;16.03;47.09;99157.81;10228403;28;20051;-78
2022/09/29 11:24:51;;;;;;;2.42;2.10;;;;;;;16.97;45.51;99147.75;10233298;28;20127;-77
2022/09/29 11:30:03;;;;;;;2.85;2.55;;;;;;;18.94;42.02;99151.84;10204812;28;20055;-77
2022/09/29 11:35:32;;;;;;;5.28;2.42;;;;;;;19.95;41.63;99145.22;10202492;28;20159;-78
2022/09/29 11:40:48;;;;;;;2.95;1.83;;;;;;;20.00;41.37;99146.25;10202361;28;20054;-79
2022/09/29 11:46:00;;;;;;;2.90;1.95;;;;;;;19.12;43.24;99149.34;10207129;28;20557;-78
2022/09/29 11:51:14;;;;;;;3.33;1.80;;;;;;;16.76;44.48;99153.22;10211165;28;20055;-79
2022/09/29 11:56:30;;;;;;;2.08;1.85;;;;;;;15.74;46.76;99166.78;10199947;28;21264;-78
2022/09/29 12:01:47;;;;;;;3.03;2.10;;;;;;;16.33;45.74;99161.31;10192016;28;20400;-78
2022/09/29 12:06:56;;;;;;;3.10;2.70;;;;;;;14.86;49.54;99168.31;10196500;28;20055;-78
2022/09/29 12:12:08;;;;;;;4.10;2.85;;;;;;;16.00;47.33;99161.72;10182798;29;20056;-78
2022/09/29 12:17:30;;;;;;;2.20;1.63;;;;;;;17.45;43.51;99163.38;10195464;29;20074;-78
2022/09/29 12:22:35;;;;;;;4.45;1.92;;;;;;;17.12;44.05;99160.41;10182753;29;21364;-77
2022/09/29 12:27:43;;;;;;;2.65;1.80;;;;;;;17.41;42.80;99162.94;10181224;29;20064;-78
2022/09/29 12:32:52;;;;;;;2.20;1.60;;;;;;;18.46;41.54;99160.13;10186948;28;20110;-81
2022/09/29 12:38:02;;;;;;;2.25;2.00;;;;;;;20.12;38.95;99152.66;10208751;28;20492;-78
2022/09/29 12:43:15;;;;;;;1.50;1.40;;;;;;;23.06;34.95;99145.91;10211686;28;20142;-79
2022/09/29 12:48:30;;;;;;;1.63;1.23;;;;;;;24.37;32.46;99145.56;10210135;28;20059;-78
2022/09/29 12:53:39;;;;;;;2.55;1.55;;;;;;;19.68;39.30;99159.75;10244123;28;21266;-77
2022/09/29 12:58:45;;;;;;;2.97;1.40;;;;;;;19.72;39.37;99156.59;10208363;28;20055;-78
2022/09/29 13:04:13;;;;;;;2.67;1.30;;;;;;;20.84;36.12;99151.66;10215398;28;20051;-78
2022/09/29 13:09:40;;;;;;;3.35;1.20;;;;;;;21.45;35.93;99145.50;10210833;28;20051;-78
2022/09/29 13:15:16;;;;;;;3.72;1.30;;;;;;;19.81;37.87;99155.31;10207438;28;20051;-78
2022/09/29 13:20:38;;;;;;;4.20;1.65;;;;;;;18.13;41.28;99164.41;10222358;28;20051;-78
2022/09/29 13:25:53;;;;;;;3.33;1.90;;;;;;;20.98;37.71;99154.06;10212414;28;20539;-78
2022/09/29 13:31:02;;;;;;;1.88;1.77;;;;;;;23.47;34.11;99157.88;10216408;28;20054;-78
2022/09/29 13:36:07;;;;;;;2.55;2.35;;;;;;;24.75;31.67;99155.06;10208862;28;20058;-77
2022/09/29 13:41:15;;;;;;;2.83;2.47;;;;;;;23.54;30.75;99164.09;10204815;28;20054;-78
2022/09/29 13:46:38;;;;;;;3.22;2.38;;;;;;;21.50;34.38;99159.28;10200656;28;20056;-79
2022/09/29 13:51:48;;;;;;;3.13;2.60;;;;;;;18.53;41.30;99164.50;10194687;28;20083;-79
2022/09/29 13:57:01;;;;;;;5.80;3.53;;;;;;;17.88;42.37;99169.50;10195877;28;21161;-79
2022/09/29 14:02:18;;;;;;;5.05;2.97;;;;;;;16.60;44.19;99170.56;10176171;29;20070;-79
2022/09/29 14:07:41;;;;;;;3.47;2.70;;;;;;;15.45;47.43;99179.31;10195560;28;20059;-78
2022/09/29 14:12:50;;;;;;;4.65;3.92;;;;;;;14.79;49.40;99176.31;10177893;29;20536;-78
2022/09/29 14:18:00;;;;;;;3.83;3.53;;;;;;;14.95;48.97;99184.31;10199232;28;20202;-78
2022/09/29 14:23:04;;;;;;;4.28;3.47;;;;;;;20.36;38.60;99169.38;10201399;28;20110;-77
2022/09/29 14:28:12;;;;;;;2.30;2.20;;;;;;;22.96;33.34;99162.94;10214339;28;20047;-77
2022/09/29 14:33:19;;;;;;;2.40;2.20;;;;;;;22.45;33.63;99161.59;10204094;28;20429;-78
2022/09/29 14:38:25;;;;;;;1.75;1.65;;;;;;;20.39;35.35;99162.66;10196889;28;20044;-78
2022/09/29 14:43:38;;;;;;;4.55;2.35;;;;;;;18.68;38.44;99175.22;10215594;28;20095;-79
2022/09/29 14:54:28;;;;;;;3.13;2.05;;;;;;;17.46;39.96;99179.47;10212371;28;20055;-79
2022/09/29 14:59:46;;;;;;;2.03;1.77;;;;;;;18.45;38.37;99185.63;10216361;28;20063;-79
2022/09/29 15:04:49;;;;;;;8.15;2.63;;;;;;;18.18;39.65;99185.50;10208450;28;20047;-79
2022/09/29 15:09:54;;;;;;;4.93;2.35;;;;;;;18.29;39.26;99190.41;10209881;28;20059;-79
2022/09/29 15:15:00;;;;;;;2.80;1.90;;;;;;;18.74;39.80;99198.88;10219814;28;20053;-79
2022/09/29 15:20:13;;;;;;;1.83;1.70;;;;;;;17.98;40.21;99200.91;10208152;28;20082;-80
2022/09/29 15:25:28;;;;;;;2.20;2.00;;;;;;;17.83;39.86;99204.56;10211452;28;20696;-80
2022/09/29 15:30:33;;;;;;;2.28;1.83;;;;;;;17.12;41.44;99209.25;10210539;28;20051;-79
2022/09/29 15:35:43;;;;;;;2.55;2.35;;;;;;;16.52;42.59;99209.47;10210842;28;20095;-80
2022/09/29 15:40:53;;;;;;;2.92;2.33;;;;;;;15.73;44.05;99214.69;10214698;28;20142;-79
2022/09/29 15:46:01;;;;;;;2.83;2.25;;;;;;;16.72;41.79;99214.28;10216341;28;20043;-79
2022/09/29 15:51:04;;;;;;;2.70;2.38;;;;;;;16.96;42.21;99224.75;10201263;28;21200;-79
2022/09/29 15:56:07;;;;;;;2.28;2.05;;;;;;;16.70;43.00;99217.19;10206752;28;20043;-79
2022/09/29 16:01:17;;;;;;;3.40;1.80;;;;;;;16.95;43.07;99224.91;10201974;28;21239;-78
2022/09/29 16:06:27;;;;;;;2.17;1.73;;;;;;;16.94;43.36;99229.50;10221209;28;20065;-79
2022/09/29 16:11:33;;;;;;;3.63;1.60;;;;;;;17.27;44.31;99233.59;10210835;28;20062;-79
2022/09/29 16:16:42;;;;;;;2.92;1.50;;;;;;;16.63;44.28;99240.66;10200172;28;20075;-79
2022/09/29 16:21:50;;;;;;;1.80;1.35;;;;;;;16.62;45.68;99244.41;10208671;28;21133;-79
2022/09/29 16:26:54;;;;;;;2.05;1.23;;;;;;;16.26;44.95;99249.78;10206507;28;20242;-79
2022/09/29 16:31:59;;;;;;;4.20;1.58;;;;;;;16.02;47.90;99257.19;10209170;28;20520;-78
2022/09/29 16:37:04;;;;;;;2.67;1.73;;;;;;;15.53;49.31;99257.69;10209427;28;20047;-77
2022/09/29 16:42:18;;;;;;;1.83;1.55;;;;;;;15.11;49.71;99266.31;10217373;28;20055;-79
2022/09/29 16:47:26;;;;;;;2.70;1.63;;;;;;;14.82;51.08;99274.13;10239112;28;20067;-77
2022/09/29 16:52:35;;;;;;;4.10;1.90;;;;;;;14.40;52.47;99279.06;10240791;28;20062;-78
2022/09/29 16:57:50;;;;;;;2.10;1.90;;;;;;;13.65;51.76;99285.69;10207721;28;20159;-78
2022/09/29 17:02:56;;;;;;;2.75;2.45;;;;;;;13.15;52.65;99282.13;10213036;28;20086;-78
2022/09/29 17:08:00;;;;;;;5.72;2.70;;;;;;;12.88;52.65;99291.38;10190702;28;20047;-78
2022/09/29 17:13:12;;;;;;;4.03;2.90;;;;;;;12.75;53.71;99307.16;10205258;28;20167;-78
2022/09/29 17:18:17;;;;;;;5.88;2.53;;;;;;;12.53;54.48;99304.09;10221157;28;20078;-78
2022/09/29 17:23:20;;;;;;;3.80;2.63;;;;;;;12.45;54.69;99314.84;10219723;28;20133;-79
2022/09/29 17:28:24;;;;;;;2.50;2.30;;;;;;;12.36;54.67;99323.88;10200485;28;21376;-81
2022/09/29 17:33:29;;;;;;;3.28;2.97;;;;;;;12.27;54.73;99325.66;10187679;28;20058;-79
2022/09/29 17:38:32;;;;;;;5.30;2.80;;;;;;;12.07;55.24;99330.44;10207343;28;20062;-78
2022/09/29 17:43:35;;;;;;;;;;;;;;;11.93;55.92;99337.25;10205266;28;20048;-79
2022/09/29 17:48:39;;;;;;;4.45;3.40;;;;;;;11.85;56.61;99350.66;10191497;28;19981;-78
2022/09/29 17:53:42;;;;;;;8.02;3.20;;;;;;;11.55;57.24;99346.56;10176532;29;20048;-78
2022/09/29 17:58:45;;;;;;;4.85;3.15;;;;;;;11.44;56.90;99353.03;10196931;28;21193;-78
2022/09/29 18:03:50;;;;;;;4.10;3.42;;;;;;;11.40;56.86;99354.31;10185883;28;21177;-78
2022/09/29 18:08:55;;;;;;;4.47;3.70;;;;;;;11.41;58.01;99364.09;10200724;28;20054;-77
2022/09/29 18:13:58;;;;;;;5.75;4.18;;;;;;;11.38;58.78;99358.16;10174845;29;20048;-77
2022/09/29 18:19:02;;;;;;;;;;;;;;;11.26;58.95;99365.63;10182080;29;20052;-78
2022/09/29 18:24:04;;;;;;;7.32;4.55;;;;;;;11.08;60.36;99375.47;10182734;29;19933;-78
2022/09/29 18:29:15;;;;;;;8.07;3.67;;;;;;;10.65;62.55;99382.41;10198434;28;20657;-78
2022/09/29 18:34:20;;;;;;;4.97;4.20;;;;;;;10.56;62.92;99384.16;10195865;28;20128;-78
2022/09/29 18:39:24;;;;;;;6.53;3.92;;;;;;;10.69;62.85;99394.53;10201932;28;20058;-78
2022/09/29 18:44:28;;;;;;;6.22;5.15;;;;;;;10.70;62.88;99396.25;10197405;28;20060;-79
2022/09/29 18:49:33;;;;;;;7.00;4.95;;;;;;;10.64;62.67;99400.38;10205151;28;20071;-79
2022/09/29 18:54:36;;;;;;;7.43;4.40;;;;;;;10.67;62.56;99402.75;10201833;28;20106;-78
2022/09/29 18:59:38;;;;;;;8.75;5.38;;;;;;;10.53;61.73;99416.63;10187931;28;20043;-78
2022/09/29 19:04:43;;;;;;;7.93;4.85;;;;;;;10.43;62.35;99419.38;10206891;28;20528;-78
2022/09/29 19:09:45;;;;;;;5.70;5.10;;;;;;;10.14;62.84;99424.81;10203792;28;20067;-79
2022/09/29 19:14:48;;;;;;;;;;;;;;;10.16;63.48;99428.22;10209456;28;20079;-78
2022/09/29 19:19:58;;;;;;;7.07;4.82;;;;;;;10.17;63.64;99427.22;10204449;28;19926;-78
2022/09/29 19:25:02;;;;;;;4.88;4.40;;;;;;;10.11;63.49;99441.22;10212155;28;20051;-78
2022/09/29 19:30:05;;;;;;;5.90;5.30;;;;;;;10.13;63.99;99453.50;10242775;28;20127;-78
2022/09/29 19:35:14;;;;;;;7.60;5.38;;;;;;;10.20;63.82;99460.97;10223827;28;20127;-79
2022/09/29 19:40:19;;;;;;;11.95;7.18;;;;;;;10.11;64.14;99462.69;10220179;28;20051;-78
2022/09/29 19:45:22;;;;;;;16.23;8.85;;;;;;;10.04;64.50;99464.22;10222064;28;20059;-79
2022/09/29 19:55:47;;;;;;;8.48;6.38;;;;;;;9.82;64.52;99471.59;10229805;28;20051;-78
2022/09/29 20:00:56;;;;;;;7.10;6.32;;;;;;;9.73;64.95;99475.09;10221250;28;20066;-78
2022/09/29 20:06:02;;;;;;;10.95;6.80;;;;;;;9.68;65.46;99488.06;10228013;28;20056;-79
2022/09/29 20:11:06;;;;;;;8.48;7.05;;;;;;;9.56;65.99;99484.69;10218332;28;20058;-79
2022/09/29 20:16:09;;;;;;;9.13;7.47;;;;;;;9.60;66.00;99486.13;10214453;28;20102;-79
2022/09/29 20:21:14;;;;;;;18.98;12.25;;;;;;;9.55;65.94;99487.53;10192114;28;20078;-79
2022/09/29 20:26:17;;;;;;;14.40;10.40;;;;;;;9.53;66.11;99492.16;10190400;29;20095;-78
2022/09/29 20:31:20;;;;;;;12.13;9.95;;;;;;;9.19;67.26;99487.19;10196362;28;20527;-78
2022/09/29 20:36:25;;;;;;;12.85;10.25;;;;;;;8.96;68.54;99506.13;10191036;29;20079;-78
2022/09/29 20:41:28;;;;;;;13.80;9.05;;;;;;;9.04;68.70;99518.84;10191136;28;20055;-79
2022/09/29 20:46:31;;;;;;;31.83;21.30;;;;;;;8.99;68.19;99526.44;10219365;28;20062;-79
2022/09/29 20:51:37;;;;;;;31.58;17.80;;;;;;;8.88;68.03;99530.06;10204990;28;21174;-79
2022/09/29 20:56:40;;;;;;;14.65;10.95;;;;;;;8.73;68.14;99524.22;10197273;28;20114;-78
2022/09/29 21:01:43;;;;;;;12.98;9.95;;;;;;;8.72;68.22;99543.94;10202886;28;20121;-79
2022/09/29 21:06:49;;;;;;;15.48;9.52;;;;;;;8.78;68.18;99535.38;10200298;28;20051;-78
2022/09/29 21:11:54;;;;;;;13.00;10.27;;;;;;;8.77;68.02;99546.22;10208872;28;20061;-80
2022/09/29 21:16:57;;;;;;;14.60;11.02;;;;;;;8.75;67.70;99550.84;10206155;28;20051;-78
2022/09/29 21:22:01;;;;;;;21.90;13.85;;;;;;;8.72;67.99;99561.81;10200422;28;20693;-78
2022/09/29 21:27:04;;;;;;;26.58;15.48;;;;;;;8.64;67.88;99562.50;10223135;28;20547;-80
2022/09/29 21:32:07;;;;;;;18.38;12.30;;;;;;;8.44;68.11;99566.00;10247501;28;20051;-79
2022/09/29 21:37:11;;;;;;;13.13;11.73;;;;;;;8.33;69.10;99569.56;10254871;29;20050;-79
2022/09/29 21:42:15;;;;;;;14.45;12.38;;;;;;;8.25;70.89;99564.03;10257247;29;20546;-78
2022/09/29 21:48:06;;;;;;;14.98;13.43;;;;;;;8.26;71.08;99573.75;10252977;29;20130;-79
2022/09/29 21:52:43;;;;;;;14.65;12.38;;;;;;;8.18;71.12;99566.38;10255452;29;20035;-76
2022/09/29 21:57:46;;;;;;;15.13;12.80;;;;;;;8.18;71.46;99575.25;10250528;29;20062;-77
2022/09/29 22:02:49;;;;;;;;;;;;;;;8.14;71.52;99586.31;10260927;29;20129;-76
2022/09/29 22:07:53;;;;;;;13.98;12.07;;;;;;;8.18;71.21;99585.94;10255226;29;19946;-78
2022/09/29 22:12:56;;;;;;;14.35;12.15;;;;;;;8.21;70.79;99592.88;10242781;29;20046;-79
2022/09/29 22:17:59;;;;;;;16.95;12.15;;;;;;;8.17;70.35;99586.06;10256308;29;20455;-79
2022/09/29 22:23:04;;;;;;;17.52;12.85;;;;;;;8.08;70.49;99595.72;10250810;28;20069;-79
2022/09/29 22:28:07;;;;;;;18.98;13.25;;;;;;;8.04;70.64;99586.25;10237090;29;20103;-79
2022/09/29 22:33:09;;;;;;;16.35;13.90;;;;;;;8.13;70.89;99601.53;10239121;29;20075;-80
2022/09/29 22:38:14;;;;;;;19.77;14.40;;;;;;;8.05;70.39;99598.66;10247702;29;20075;-79
2022/09/29 22:43:17;;;;;;;21.48;15.85;;;;;;;7.88;70.23;99591.19;10220789;29;20099;-79
2022/09/29 22:48:20;;;;;;;25.02;14.30;;;;;;;7.79;70.58;99598.13;10248409;29;20110;-80
2022/09/29 22:53:24;;;;;;;;;;;;;;;7.75;70.81;99594.00;10253166;29;20090;-79
2022/09/29 22:58:27;;;;;;;22.35;13.85;;;;;;;7.74;71.19;99594.97;10226866;29;19982;-79
2022/09/29 23:03:30;;;;;;;19.00;13.25;;;;;;;7.82;70.98;99600.56;10228681;29;20078;-79
2022/09/29 23:08:35;;;;;;;17.20;13.07;;;;;;;7.64;70.75;99600.22;10225162;29;20048;-77
2022/09/29 23:13:39;;;;;;;17.10;12.88;;;;;;;7.53;71.15;99608.25;10252540;28;20047;-79
2022/09/29 23:18:43;;;;;;;13.38;11.77;;;;;;;7.44;71.30;99609.00;10248646;29;20074;-79
2022/09/29 23:23:53;;;;;;;18.65;12.52;;;;;;;7.38;71.55;99613.03;10263743;29;20035;-77
2022/09/29 23:29:10;;;;;;;16.52;13.25;;;;;;;7.30;72.08;99602.09;10146743;29;20076;-78
2022/09/29 23:34:13;;;;;;;20.98;16.08;;;;;;;7.18;73.02;99611.06;10119558;29;20143;-77
2022/09/29 23:39:18;;;;;;;18.17;14.10;;;;;;;7.14;73.34;99617.63;10116333;29;20076;-80
2022/09/29 23:44:23;;;;;;;17.63;13.95;;;;;;;7.24;73.15;99616.78;10135860;29;20573;-80
2022/09/29 23:49:27;;;;;;;14.07;12.60;;;;;;;7.26;73.27;99620.16;10108549;29;20125;-79
2022/09/29 23:54:31;;;;;;;16.42;14.65;;;;;;;7.24;73.35;99614.13;10234411;29;20055;-79
2022/09/29 23:59:34;;;;;;;15.68;13.98;;;;;;;7.26;73.34;99622.00;10223142;29;20130;-78
